Time;durP1;ratioP1;P1;durP2;ratioP2;P2;SDS_P1;SDS_P2;PMS_P1;PMS_P2;Temp;Humidity;BMP_temperature;BMP_pressure;BME280_temperature;BME280_humidity;BME280_pressure;Samples;Min_cycle;Max_cycle;Signal;HPM_P1;HPM_P2
2023/12/25 00:01:09;;;;;;;0.60;0.20;;;13.50;99.90;;;;;;5016743;28;20555;-61
2023/12/25 00:03:36;;;;;;;1.25;0.38;;;13.40;99.90;;;;;;5016223;28;20077;-60
2023/12/25 00:06:13;;;;;;;1.48;0.40;;;13.40;99.90;;;;;;5015456;28;20422;-61
2023/12/25 00:08:40;;;;;;;1.15;0.32;;;13.40;99.90;;;;;;5016393;28;20472;-60
2023/12/25 00:11:07;;;;;;;1.30;0.20;;;13.40;99.90;;;;;;5015375;28;20034;-60
2023/12/25 00:13:34;;;;;;;0.80;0.30;;;13.40;99.90;;;;;;5016043;28;20050;-60
2023/12/25 00:16:01;;;;;;;0.65;0.30;;;13.40;99.90;;;;;;5016560;28;20044;-64
2023/12/25 00:18:27;;;;;;;1.30;0.40;;;13.40;99.90;;;;;;5016054;28;20038;-64
2023/12/25 00:20:55;;;;;;;0.73;0.30;;;13.40;99.90;;;;;;5016196;28;20050;-64
2023/12/25 00:23:21;;;;;;;1.08;0.30;;;13.40;99.90;;;;;;5015997;28;20049;-65
2023/12/25 00:25:48;;;;;;;0.65;0.30;;;13.40;99.90;;;;;;5015785;28;20060;-65
2023/12/25 00:28:15;;;;;;;0.90;0.30;;;13.40;99.90;;;;;;5015755;28;20049;-65
2023/12/25 00:30:42;;;;;;;0.95;0.20;;;13.50;99.90;;;;;;5015802;28;20577;-64
2023/12/25 00:33:09;;;;;;;0.63;0.30;;;13.50;99.90;;;;;;5014563;28;20070;-64
2023/12/25 00:35:36;;;;;;;0.88;0.40;;;13.50;99.90;;;;;;5015861;28;20034;-64
2023/12/25 00:38:03;;;;;;;1.33;0.30;;;13.50;99.90;;;;;;5015993;28;20073;-64
2023/12/25 00:40:30;;;;;;;0.95;0.30;;;13.50;99.90;;;;;;5015807;28;20121;-64
2023/12/25 00:42:56;;;;;;;1.10;0.30;;;13.50;99.90;;;;;;5014500;28;20045;-60
2023/12/25 00:45:23;;;;;;;0.93;0.30;;;13.50;99.90;;;;;;5015784;28;20042;-61
2023/12/25 00:47:50;;;;;;;1.10;0.30;;;13.50;99.90;;;;;;5015811;28;20517;-60
2023/12/25 00:50:17;;;;;;;0.90;0.40;;;13.50;99.90;;;;;;5014192;28;20533;-60
2023/12/25 00:52:44;;;;;;;1.60;0.40;;;13.50;99.90;;;;;;5015555;28;20060;-60
2023/12/25 00:55:11;;;;;;;0.98;0.38;;;13.50;99.90;;;;;;5015146;28;20088;-60
2023/12/25 00:57:37;;;;;;;0.98;0.40;;;13.50;99.90;;;;;;5015565;28;20045;-61
2023/12/25 01:00:04;;;;;;;2.05;0.35;;;13.50;99.90;;;;;;5013891;28;20077;-64
2023/12/25 01:02:32;;;;;;;0.90;0.30;;;13.50;99.90;;;;;;5015171;28;20069;-59
2023/12/25 01:04:58;;;;;;;1.10;0.30;;;13.50;99.90;;;;;;4997575;28;20045;-60
2023/12/25 01:07:26;;;;;;;1.02;0.30;;;13.50;99.90;;;;;;5013692;28;20103;-60
2023/12/25 01:09:53;;;;;;;0.85;0.30;;;13.50;99.90;;;;;;5015166;28;20148;-60
2023/12/25 01:12:20;;;;;;;1.67;0.50;;;13.50;99.90;;;;;;5014745;28;20054;-59
2023/12/25 01:14:47;;;;;;;1.55;0.50;;;13.50;99.90;;;;;;5013463;28;20144;-60
2023/12/25 01:17:13;;;;;;;2.25;0.50;;;13.50;99.90;;;;;;5015238;28;20064;-60
2023/12/25 01:19:40;;;;;;;2.30;0.60;;;13.60;99.90;;;;;;4997553;28;20364;-59
2023/12/25 01:22:07;;;;;;;1.80;0.47;;;13.50;99.90;;;;;;5014736;28;20061;-59
2023/12/25 01:24:34;;;;;;;2.03;0.28;;;13.60;99.90;;;;;;5014651;28;20042;-59
2023/12/25 01:27:01;;;;;;;1.92;0.50;;;13.60;99.90;;;;;;5014671;28;20132;-60
2023/12/25 01:29:28;;;;;;;2.28;0.38;;;13.60;99.90;;;;;;5015019;28;20557;-60
2023/12/25 01:31:54;;;;;;;1.70;0.38;;;13.60;99.90;;;;;;5014509;28;20497;-63
2023/12/25 01:34:21;;;;;;;3.58;0.47;;;13.60;99.90;;;;;;5014207;28;20045;-60
2023/12/25 01:36:48;;;;;;;1.20;0.40;;;13.60;99.90;;;;;;5013379;28;20062;-60
2023/12/25 01:39:15;;;;;;;2.97;0.50;;;13.60;99.90;;;;;;5014535;28;20117;-59
2023/12/25 01:41:41;;;;;;;1.10;0.30;;;13.60;99.90;;;;;;5014568;28;20046;-59
2023/12/25 01:44:09;;;;;;;0.98;0.30;;;13.60;99.90;;;;;;5014910;28;20041;-60
2023/12/25 01:46:48;;;;;;;1.55;0.30;;;13.60;99.90;;;;;;5013067;28;20046;-60
2023/12/25 01:49:15;;;;;;;1.70;0.30;;;13.60;99.90;;;;;;5013408;28;20057;-60
2023/12/25 01:51:42;;;;;;;1.08;0.40;;;13.60;99.90;;;;;;5013174;28;20116;-60
2023/12/25 01:54:09;;;;;;;1.60;0.45;;;13.60;99.90;;;;;;5014169;28;20072;-60
2023/12/25 01:56:35;;;;;;;2.50;0.50;;;13.60;99.90;;;;;;5014601;28;20434;-59
2023/12/25 01:59:02;;;;;;;2.10;0.40;;;13.50;99.90;;;;;;5012919;28;20123;-60
2023/12/25 02:01:30;;;;;;;0.35;0.20;;;13.50;99.90;;;;;;5012670;28;20058;-60
2023/12/25 02:03:57;;;;;;;0.65;0.40;;;13.40;99.90;;;;;;5014196;28;20049;-60
2023/12/25 02:06:24;;;;;;;1.65;0.40;;;13.30;99.90;;;;;;5014232;28;20513;-63
2023/12/25 02:08:51;;;;;;;0.85;0.20;;;13.30;99.90;;;;;;5013011;28;20410;-63
2023/12/25 02:11:18;;;;;;;0.52;0.30;;;13.30;99.90;;;;;;5014207;28;20116;-64
2023/12/25 02:13:45;;;;;;;2.03;0.32;;;13.30;99.90;;;;;;5012238;28;20468;-64
2023/12/25 02:16:12;;;;;;;1.08;0.40;;;13.20;99.90;;;;;;5013927;28;20049;-64
2023/12/25 02:18:39;;;;;;;2.42;0.40;;;13.20;99.90;;;;;;5012735;28;20046;-63
2023/12/25 02:21:06;;;;;;;1.30;0.32;;;13.20;99.90;;;;;;5012800;28;20081;-64
2023/12/25 02:23:33;;;;;;;1.92;0.45;;;13.20;99.90;;;;;;5013949;28;20045;-63
2023/12/25 02:26:00;;;;;;;1.42;0.30;;;13.20;99.90;;;;;;5014108;28;20042;-63
2023/12/25 02:28:27;;;;;;;2.33;0.30;;;13.20;99.90;;;;;;5012278;28;20034;-64
2023/12/25 02:30:54;;;;;;;2.00;0.50;;;13.20;99.90;;;;;;5013721;28;20038;-60
2023/12/25 02:33:21;;;;;;;0.98;0.30;;;13.10;99.90;;;;;;5011672;28;20074;-61
2023/12/25 02:35:48;;;;;;;1.58;0.40;;;13.10;99.90;;;;;;5014093;28;20042;-62
2023/12/25 02:38:15;;;;;;;2.55;0.52;;;13.10;99.90;;;;;;5014196;28;20454;-61
2023/12/25 02:40:42;;;;;;;0.95;0.30;;;13.10;99.90;;;;;;5012717;28;20056;-62
2023/12/25 02:43:09;;;;;;;1.00;0.30;;;13.20;99.90;;;;;;5014059;28;20053;-60
2023/12/25 02:45:36;;;;;;;2.25;0.40;;;13.20;99.90;;;;;;5013542;28;20430;-61
2023/12/25 02:48:03;;;;;;;0.70;0.20;;;13.20;99.90;;;;;;5013729;28;20046;-61
2023/12/25 02:50:30;;;;;;;1.58;0.30;;;13.20;99.90;;;;;;5012291;28;20042;-59
2023/12/25 02:52:57;;;;;;;1.30;0.40;;;13.20;99.90;;;;;;5013407;28;20483;-60
2023/12/25 02:55:25;;;;;;;2.08;0.40;;;13.20;99.90;;;;;;5013852;28;20034;-60
2023/12/25 02:57:53;;;;;;;2.25;0.47;;;13.20;99.90;;;;;;5013410;28;20041;-60
2023/12/25 03:00:20;;;;;;;1.23;0.32;;;13.30;99.90;;;;;;5013873;28;20485;-60
2023/12/25 03:02:47;;;;;;;2.78;0.30;;;13.30;99.90;;;;;;5013471;28;20050;-60
2023/12/25 03:05:14;;;;;;;1.35;0.40;;;13.30;99.90;;;;;;5012013;28;20041;-60
2023/12/25 03:07:41;;;;;;;1.58;0.32;;;13.30;99.90;;;;;;5013479;28;20092;-60
2023/12/25 03:10:07;;;;;;;1.50;0.30;;;13.30;99.90;;;;;;5013140;28;20050;-60
2023/12/25 03:12:34;;;;;;;1.77;0.30;;;13.30;99.90;;;;;;5013024;28;20502;-60
2023/12/25 03:15:01;;;;;;;1.33;0.30;;;13.30;99.90;;;;;;5012509;28;20116;-61
2023/12/25 03:17:28;;;;;;;0.85;0.30;;;13.40;99.90;;;;;;4996280;28;20042;-61
2023/12/25 03:19:55;;;;;;;0.82;0.20;;;13.30;99.90;;;;;;5011943;28;20073;-61
2023/12/25 03:22:22;;;;;;;0.68;0.17;;;13.40;99.90;;;;;;5013825;28;20046;-61
2023/12/25 03:24:49;;;;;;;1.13;0.32;;;13.40;99.90;;;;;;5011696;28;20092;-61
2023/12/25 03:27:15;;;;;;;1.65;0.40;;;13.40;99.90;;;;;;5011970;28;20041;-60
2023/12/25 03:29:42;;;;;;;0.55;0.20;;;13.40;99.90;;;;;;5013378;28;20068;-61
2023/12/25 03:32:11;;;;;;;1.58;0.40;;;13.40;99.90;;;;;;5013398;28;20037;-61
2023/12/25 03:34:37;;;;;;;0.77;0.30;;;13.40;99.90;;;;;;5013196;28;20524;-61
2023/12/25 03:37:04;;;;;;;0.55;0.22;;;13.40;99.90;;;;;;5013534;28;20049;-61
2023/12/25 03:39:32;;;;;;;0.68;0.20;;;13.40;99.90;;;;;;5012229;28;20422;-61
2023/12/25 03:41:58;;;;;;;0.60;0.20;;;13.40;99.90;;;;;;5013180;28;20046;-61
2023/12/25 03:44:25;;;;;;;1.17;0.35;;;13.40;99.90;;;;;;5013452;28;20426;-61
2023/12/25 03:46:52;;;;;;;1.95;0.30;;;13.40;99.90;;;;;;5015594;28;20418;-61
2023/12/25 03:49:19;;;;;;;1.52;0.40;;;13.40;99.90;;;;;;5016333;28;20049;-61
2023/12/25 03:51:49;;;;;;;1.23;0.30;;;13.40;99.90;;;;;;5016720;28;20498;-60
2023/12/25 03:54:15;;;;;;;0.52;0.25;;;13.40;99.90;;;;;;5015068;28;20399;-60
2023/12/25 03:56:42;;;;;;;2.75;0.38;;;13.40;99.90;;;;;;5015567;28;20042;-61
2023/12/25 03:59:09;;;;;;;0.90;0.30;;;13.30;99.90;;;;;;5014984;28;20046;-60
2023/12/25 04:01:38;;;;;;;1.75;0.30;;;13.30;99.90;;;;;;5016345;28;20116;-60
2023/12/25 04:04:05;;;;;;;1.77;0.40;;;13.30;99.90;;;;;;5016284;28;20069;-60
2023/12/25 04:06:32;;;;;;;0.85;0.25;;;13.30;99.90;;;;;;5015392;28;20049;-61
2023/12/25 04:08:59;;;;;;;1.40;0.30;;;13.30;99.90;;;;;;5016727;28;20038;-60
2023/12/25 04:11:26;;;;;;;1.55;0.30;;;13.30;99.90;;;;;;5016651;28;20034;-61
2023/12/25 04:13:54;;;;;;;0.90;0.20;;;13.30;99.90;;;;;;5014982;28;20057;-61
2023/12/25 04:16:20;;;;;;;1.45;0.38;;;13.30;99.90;;;;;;5016547;28;20081;-61
2023/12/25 04:18:48;;;;;;;1.40;0.40;;;13.30;99.90;;;;;;5015178;28;20052;-61
2023/12/25 04:21:14;;;;;;;1.73;0.73;;;13.30;99.90;;;;;;5015769;28;20038;-61
2023/12/25 04:23:41;;;;;;;1.95;0.43;;;13.30;99.90;;;;;;5015003;28;20505;-61
2023/12/25 04:26:08;;;;;;;1.00;0.40;;;13.30;99.90;;;;;;5014580;28;20042;-61
2023/12/25 04:28:35;;;;;;;1.55;0.30;;;13.30;99.90;;;;;;5014551;28;20052;-61
2023/12/25 04:31:02;;;;;;;1.52;0.20;;;13.30;99.90;;;;;;5015872;28;20048;-61
2023/12/25 04:33:28;;;;;;;1.95;0.25;;;13.20;99.90;;;;;;5015577;28;20045;-61
2023/12/25 04:35:55;;;;;;;1.15;0.28;;;13.20;99.90;;;;;;5014596;28;20100;-61
2023/12/25 04:38:22;;;;;;;1.42;0.30;;;13.20;99.90;;;;;;5016363;28;20046;-61
2023/12/25 04:40:49;;;;;;;0.95;0.30;;;13.20;99.90;;;;;;5014730;28;20570;-61
2023/12/25 04:43:16;;;;;;;1.05;0.20;;;13.20;99.90;;;;;;5015301;28;20038;-61
2023/12/25 04:45:43;;;;;;;0.70;0.20;;;13.10;99.90;;;;;;5014190;28;20133;-61
2023/12/25 04:48:10;;;;;;;1.65;0.28;;;13.10;99.90;;;;;;5014732;28;20042;-61
2023/12/25 04:50:37;;;;;;;1.27;0.20;;;13.10;99.90;;;;;;5014123;28;20096;-61
2023/12/25 04:53:04;;;;;;;1.38;0.25;;;13.10;99.90;;;;;;5015659;28;20041;-60
2023/12/25 04:55:31;;;;;;;1.67;0.30;;;13.10;99.90;;;;;;5013365;28;20494;-61
2023/12/25 04:57:58;;;;;;;1.95;0.30;;;13.10;99.90;;;;;;5013931;28;20045;-61
2023/12/25 05:00:25;;;;;;;0.90;0.20;;;13.10;99.90;;;;;;5013807;28;20038;-61
2023/12/25 05:02:52;;;;;;;0.82;0.20;;;13.10;99.90;;;;;;5013647;28;20050;-61
2023/12/25 05:05:19;;;;;;;0.43;0.20;;;13.20;99.90;;;;;;5015145;28;20037;-61
2023/12/25 05:07:46;;;;;;;0.43;0.15;;;13.20;99.90;;;;;;5014911;28;20038;-61
2023/12/25 05:10:12;;;;;;;0.65;0.30;;;13.20;99.90;;;;;;5013951;28;20050;-61
2023/12/25 05:12:39;;;;;;;2.22;0.30;;;13.10;99.90;;;;;;5015023;28;20050;-60
2023/12/25 05:15:06;;;;;;;0.43;0.28;;;13.10;99.90;;;;;;5015097;28;20442;-61
2023/12/25 05:17:33;;;;;;;0.57;0.10;;;13.20;99.90;;;;;;5015325;28;20120;-61
2023/12/25 05:20:00;;;;;;;1.42;0.28;;;13.10;99.90;;;;;;5014667;28;20034;-61
2023/12/25 05:22:26;;;;;;;0.52;0.13;;;13.10;99.90;;;;;;5015219;28;20042;-61
2023/12/25 05:24:53;;;;;;;1.05;0.30;;;13.10;99.90;;;;;;5014589;28;20046;-61
2023/12/25 05:27:20;;;;;;;0.60;0.15;;;13.10;99.90;;;;;;5015022;28;20120;-61
2023/12/25 05:29:47;;;;;;;1.02;0.22;;;13.10;99.90;;;;;;5014597;28;20038;-61
2023/12/25 05:32:13;;;;;;;2.33;0.20;;;13.00;99.90;;;;;;5014941;28;20038;-61
2023/12/25 05:34:40;;;;;;;1.50;0.10;;;13.00;99.90;;;;;;5014588;28;20033;-61
2023/12/25 05:37:07;;;;;;;1.85;0.30;;;13.00;99.90;;;;;;5014985;28;20067;-61
2023/12/25 05:39:34;;;;;;;1.33;0.30;;;12.90;99.90;;;;;;5014498;28;20038;-61
2023/12/25 05:42:01;;;;;;;0.73;0.17;;;12.90;99.90;;;;;;5014683;28;20036;-61
2023/12/25 05:44:27;;;;;;;1.00;0.20;;;12.90;99.90;;;;;;5012922;28;20403;-61
2023/12/25 05:46:54;;;;;;;1.63;0.52;;;12.90;99.90;;;;;;5014300;28;20057;-61
2023/12/25 05:49:21;;;;;;;0.88;0.28;;;12.90;99.90;;;;;;5015097;28;20053;-61
2023/12/25 05:51:48;;;;;;;1.85;0.20;;;12.90;99.90;;;;;;5014350;28;20100;-60
2023/12/25 05:54:15;;;;;;;1.08;0.20;;;12.90;99.90;;;;;;5014120;28;20061;-60
2023/12/25 05:56:42;;;;;;;0.25;0.17;;;12.90;99.90;;;;;;5014263;28;20501;-61
2023/12/25 05:59:08;;;;;;;0.63;0.15;;;12.90;99.90;;;;;;5014339;28;20044;-61
2023/12/25 06:01:35;;;;;;;1.73;0.40;;;12.90;99.90;;;;;;5014180;28;20038;-60
2023/12/25 06:04:02;;;;;;;1.17;0.30;;;12.90;99.90;;;;;;5014017;28;20116;-61
2023/12/25 06:06:29;;;;;;;0.90;0.20;;;12.90;99.90;;;;;;5013788;28;20038;-61
2023/12/25 06:08:56;;;;;;;1.55;0.20;;;12.90;99.90;;;;;;5013036;28;20103;-60
2023/12/25 06:11:22;;;;;;;0.88;0.20;;;12.90;99.90;;;;;;5013961;28;20042;-61
2023/12/25 06:13:49;;;;;;;1.35;0.35;;;12.90;99.90;;;;;;5013664;28;20057;-61
2023/12/25 06:16:16;;;;;;;1.45;0.20;;;12.90;99.90;;;;;;5014096;28;20041;-60
2023/12/25 06:18:43;;;;;;;1.17;0.30;;;12.90;99.90;;;;;;5013676;28;20454;-61
2023/12/25 06:21:10;;;;;;;0.55;0.20;;;12.90;99.90;;;;;;5013557;28;20203;-60
2023/12/25 06:23:36;;;;;;;0.52;0.20;;;12.90;99.90;;;;;;5012176;28;20048;-61
2023/12/25 06:26:03;;;;;;;0.38;0.10;;;12.90;99.90;;;;;;5013594;28;20061;-60
2023/12/25 06:28:30;;;;;;;0.75;0.28;;;13.00;99.90;;;;;;5012562;28;20114;-61
2023/12/25 06:30:57;;;;;;;1.27;0.25;;;13.00;99.90;;;;;;5013728;28;20048;-64
2023/12/25 06:33:24;;;;;;;2.38;0.30;;;12.90;99.90;;;;;;5013729;28;20041;-65
2023/12/25 06:35:51;;;;;;;0.73;0.10;;;12.90;99.90;;;;;;5013569;28;20042;-64
2023/12/25 06:38:18;;;;;;;0.77;0.22;;;12.90;99.90;;;;;;5013346;28;20042;-61
2023/12/25 06:40:45;;;;;;;2.13;0.30;;;12.90;99.90;;;;;;5013511;28;20525;-60
2023/12/25 06:43:12;;;;;;;1.25;0.20;;;12.90;99.90;;;;;;5013615;28;20602;-61
2023/12/25 06:45:38;;;;;;;0.95;0.30;;;12.90;99.90;;;;;;5013968;28;20038;-60
2023/12/25 06:48:05;;;;;;;0.52;0.20;;;13.00;99.90;;;;;;5013169;28;20042;-61
2023/12/25 06:50:32;;;;;;;1.20;0.28;;;12.90;99.90;;;;;;5013483;28;20095;-61
2023/12/25 06:52:59;;;;;;;2.35;0.40;;;12.90;99.90;;;;;;5013599;28;20504;-61
2023/12/25 06:55:26;;;;;;;0.68;0.20;;;12.90;99.90;;;;;;5013543;28;20430;-61
2023/12/25 06:57:53;;;;;;;1.85;0.40;;;12.90;99.90;;;;;;5013954;28;20044;-61
2023/12/25 07:00:20;;;;;;;1.45;0.38;;;12.90;99.90;;;;;;5013555;28;20044;-61
2023/12/25 07:02:47;;;;;;;1.20;0.40;;;12.90;99.90;;;;;;5013780;28;20125;-61
2023/12/25 07:05:15;;;;;;;0.80;0.20;;;12.90;99.90;;;;;;5013045;28;20046;-61
2023/12/25 07:07:45;;;;;;;0.85;0.28;;;12.90;99.90;;;;;;5013559;28;20052;-61
2023/12/25 07:10:12;;;;;;;1.05;0.22;;;12.90;99.90;;;;;;5013137;28;20042;-61
2023/12/25 07:12:38;;;;;;;1.35;0.20;;;13.00;99.90;;;;;;5012801;28;20053;-61
2023/12/25 07:15:06;;;;;;;1.33;0.20;;;13.00;99.90;;;;;;5013441;28;20057;-61
2023/12/25 07:17:33;;;;;;;0.65;0.20;;;13.00;99.90;;;;;;5013549;28;20053;-61
2023/12/25 07:20:00;;;;;;;0.70;0.20;;;13.00;99.90;;;;;;5015409;28;20038;-61
2023/12/25 07:22:29;;;;;;;0.38;0.20;;;13.00;99.90;;;;;;5017342;28;20046;-61
2023/12/25 07:24:55;;;;;;;1.00;0.20;;;13.00;99.90;;;;;;5016894;28;20073;-61
2023/12/25 07:27:22;;;;;;;0.55;0.15;;;13.10;99.90;;;;;;5016829;28;20034;-61
2023/12/25 07:29:49;;;;;;;0.77;0.30;;;13.10;99.90;;;;;;5015623;28;20042;-61
2023/12/25 07:32:16;;;;;;;0.57;0.20;;;13.10;99.90;;;;;;5016945;28;20034;-61
2023/12/25 07:34:43;;;;;;;1.88;0.25;;;13.10;99.90;;;;;;5016815;28;20045;-60
2023/12/25 07:37:10;;;;;;;1.38;0.32;;;13.10;99.90;;;;;;5016904;28;20041;-60
2023/12/25 07:39:36;;;;;;;1.27;0.30;;;13.10;99.90;;;;;;5016395;28;20168;-61
2023/12/25 07:42:03;;;;;;;1.75;0.32;;;13.10;99.90;;;;;;5016568;28;20038;-61
2023/12/25 07:44:31;;;;;;;1.20;0.22;;;13.10;99.90;;;;;;5016589;28;20498;-60
2023/12/25 07:46:58;;;;;;;1.30;0.30;;;13.10;99.90;;;;;;5016182;28;20046;-61
2023/12/25 07:49:25;;;;;;;1.58;0.68;;;13.20;99.90;;;;;;5016795;28;20422;-60
2023/12/25 07:51:52;;;;;;;1.00;0.32;;;13.20;99.90;;;;;;5016913;28;20092;-60
2023/12/25 07:54:19;;;;;;;1.35;0.30;;;13.20;99.90;;;;;;5016173;28;20030;-61
2023/12/25 07:56:46;;;;;;;0.85;0.20;;;13.20;99.90;;;;;;5016519;28;20046;-61
2023/12/25 07:59:12;;;;;;;1.60;0.38;;;13.20;99.90;;;;;;5015052;28;20045;-60
2023/12/25 08:01:39;;;;;;;0.82;0.20;;;13.20;99.90;;;;;;5016233;28;20038;-60
2023/12/25 08:04:06;;;;;;;2.47;0.40;;;13.20;99.90;;;;;;5016537;28;20042;-60
2023/12/25 08:06:33;;;;;;;2.90;0.35;;;13.20;99.90;;;;;;5016519;28;20104;-60
2023/12/25 08:09:00;;;;;;;2.15;0.50;;;13.20;99.90;;;;;;5016565;28;20053;-60
2023/12/25 08:11:27;;;;;;;1.10;0.30;;;13.10;99.90;;;;;;5015858;28;20046;-60
2023/12/25 08:13:54;;;;;;;1.20;0.40;;;13.10;99.90;;;;;;5014741;28;20042;-60
2023/12/25 08:16:21;;;;;;;2.95;0.40;;;13.00;99.90;;;;;;5016241;28;20042;-60
2023/12/25 08:18:48;;;;;;;1.55;0.30;;;13.00;99.90;;;;;;5015965;28;20046;-60
2023/12/25 08:21:17;;;;;;;0.90;0.35;;;12.90;99.90;;;;;;5015908;28;20048;-60
2023/12/25 08:23:43;;;;;;;2.97;0.40;;;12.90;99.90;;;;;;5015760;28;20038;-60
2023/12/25 08:26:10;;;;;;;1.38;0.30;;;12.80;99.90;;;;;;5015814;28;20045;-60
2023/12/25 08:28:37;;;;;;;0.95;0.40;;;12.80;99.90;;;;;;5015803;28;20050;-60
2023/12/25 08:31:04;;;;;;;2.00;0.50;;;12.70;99.90;;;;;;5014433;28;20069;-60
2023/12/25 08:33:31;;;;;;;2.00;0.60;;;12.70;99.90;;;;;;5015432;28;20385;-60
2023/12/25 08:35:58;;;;;;;1.38;0.40;;;12.70;99.90;;;;;;5015998;28;20034;-61
2023/12/25 08:38:25;;;;;;;2.05;0.50;;;12.60;99.90;;;;;;5015814;28;20038;-61
2023/12/25 08:40:51;;;;;;;1.42;0.40;;;12.60;99.90;;;;;;5015490;28;20038;-61
2023/12/25 08:43:18;;;;;;;1.58;0.50;;;12.60;99.90;;;;;;5015233;28;20053;-61
2023/12/25 08:45:45;;;;;;;3.20;0.65;;;12.50;99.90;;;;;;5015570;28;20045;-61
2023/12/25 08:48:12;;;;;;;2.10;0.40;;;12.50;99.90;;;;;;5015596;28;20049;-61
2023/12/25 08:50:39;;;;;;;1.20;0.43;;;12.50;99.90;;;;;;5015286;28;20053;-61
2023/12/25 08:53:06;;;;;;;0.98;0.30;;;12.50;99.90;;;;;;5015261;28;20068;-60
2023/12/25 08:55:33;;;;;;;2.63;0.40;;;12.50;99.90;;;;;;5015502;28;20471;-64
2023/12/25 08:57:59;;;;;;;3.00;0.60;;;12.50;99.90;;;;;;5015317;28;20042;-63
2023/12/25 09:00:26;;;;;;;0.90;0.40;;;12.50;99.90;;;;;;5014939;28;20037;-60
2023/12/25 09:02:54;;;;;;;0.93;0.30;;;12.50;99.90;;;;;;5015064;28;20038;-64
2023/12/25 09:05:21;;;;;;;1.10;0.40;;;12.50;99.90;;;;;;5015413;28;20042;-64
2023/12/25 09:07:48;;;;;;;2.42;0.57;;;12.50;99.90;;;;;;5015126;28;20042;-59
2023/12/25 09:10:14;;;;;;;1.02;0.40;;;12.50;99.90;;;;;;5015043;28;20042;-59
2023/12/25 09:12:41;;;;;;;1.83;0.30;;;12.50;99.90;;;;;;5014568;28;20046;-59
2023/12/25 09:15:08;;;;;;;1.15;0.35;;;12.50;99.90;;;;;;5015367;28;20033;-59
2023/12/25 09:17:37;;;;;;;0.73;0.30;;;12.50;99.90;;;;;;5015316;28;20045;-60
2023/12/25 09:20:04;;;;;;;2.60;0.52;;;12.50;99.90;;;;;;5014747;28;20096;-60
2023/12/25 09:22:31;;;;;;;2.58;0.75;;;12.50;99.90;;;;;;5014932;28;20053;-59
2023/12/25 09:24:58;;;;;;;1.95;0.50;;;12.50;99.90;;;;;;5014686;28;20050;-60
2023/12/25 09:27:25;;;;;;;4.35;0.50;;;12.50;99.90;;;;;;5015292;28;20218;-60
2023/12/25 09:29:51;;;;;;;1.23;0.43;;;12.50;99.90;;;;;;5014930;28;20042;-59
2023/12/25 09:32:18;;;;;;;5.90;0.50;;;12.50;99.90;;;;;;5014931;28;20052;-60
2023/12/25 09:34:45;;;;;;;1.80;0.50;;;12.50;99.90;;;;;;5013506;28;20092;-59
2023/12/25 09:37:22;;;;;;;1.83;0.50;;;12.50;99.90;;;;;;5014481;28;20163;-59
2023/12/25 09:39:48;;;;;;;2.60;0.65;;;12.60;99.90;;;;;;5014668;28;20096;-60
2023/12/25 09:42:15;;;;;;;1.25;0.50;;;12.50;99.90;;;;;;5014621;28;20404;-60
2023/12/25 09:44:42;;;;;;;1.00;0.45;;;12.50;99.90;;;;;;5014451;28;20045;-61
2023/12/25 09:47:09;;;;;;;2.45;0.52;;;12.50;99.90;;;;;;5014504;28;20050;-60
2023/12/25 09:49:36;;;;;;;2.08;0.70;;;12.50;99.90;;;;;;5014597;28;20049;-61
2023/12/25 09:52:03;;;;;;;2.05;0.47;;;12.50;99.90;;;;;;5014279;28;20399;-60
2023/12/25 09:54:30;;;;;;;2.60;0.60;;;12.50;99.90;;;;;;5014241;28;20038;-60
2023/12/25 09:56:56;;;;;;;2.47;0.55;;;12.60;99.90;;;;;;5014397;28;20124;-60
2023/12/25 09:59:23;;;;;;;2.35;0.60;;;12.60;99.90;;;;;;5014243;28;20038;-60
2023/12/25 10:01:50;;;;;;;2.80;0.68;;;12.60;99.90;;;;;;5014430;28;20100;-65
2023/12/25 10:04:17;;;;;;;2.58;0.88;;;12.60;99.90;;;;;;5014039;28;20046;-65
2023/12/25 10:06:44;;;;;;;4.95;1.45;;;12.60;99.90;;;;;;5013880;28;20248;-65
2023/12/25 10:09:11;;;;;;;5.13;1.17;;;12.60;99.90;;;;;;5014316;28;20088;-65
2023/12/25 10:11:37;;;;;;;3.05;0.73;;;12.60;99.90;;;;;;5013598;28;20475;-63
2023/12/25 10:14:04;;;;;;;3.97;1.00;;;12.60;99.90;;;;;;5012435;28;20399;-65
2023/12/25 10:16:31;;;;;;;3.85;0.93;;;12.60;99.90;;;;;;5014053;28;20107;-64
2023/12/25 10:18:58;;;;;;;4.85;1.05;;;12.60;99.90;;;;;;5013636;28;20455;-64
2023/12/25 10:21:25;;;;;;;8.02;1.20;;;12.60;99.90;;;;;;5013525;28;20049;-64
2023/12/25 10:23:52;;;;;;;3.40;1.00;;;12.60;99.90;;;;;;5013652;28;20089;-60
2023/12/25 10:26:19;;;;;;;4.85;0.75;;;12.60;99.90;;;;;;5013356;28;20057;-60
2023/12/25 10:28:46;;;;;;;5.55;0.90;;;12.60;99.90;;;;;;5013891;28;20045;-60
2023/12/25 10:31:12;;;;;;;3.33;0.60;;;12.60;99.90;;;;;;5013474;28;20045;-60
2023/12/25 10:33:39;;;;;;;3.58;0.70;;;12.70;99.90;;;;;;5011926;28;20124;-60
2023/12/25 10:36:06;;;;;;;3.22;0.95;;;12.70;99.90;;;;;;5013510;28;20034;-60
2023/12/25 10:38:34;;;;;;;3.20;0.70;;;12.70;99.90;;;;;;5013987;28;20046;-60
2023/12/25 10:41:01;;;;;;;3.50;0.70;;;12.70;99.90;;;;;;5012170;28;20057;-60
2023/12/25 10:43:27;;;;;;;2.78;0.80;;;12.70;99.90;;;;;;5013549;28;20046;-60
2023/12/25 10:45:54;;;;;;;5.28;1.33;;;12.70;99.90;;;;;;5013318;28;20082;-60
2023/12/25 10:48:21;;;;;;;3.63;0.75;;;12.70;99.90;;;;;;5012456;28;20053;-60
2023/12/25 10:50:48;;;;;;;2.60;0.70;;;12.70;99.90;;;;;;5013549;28;20042;-61
2023/12/25 10:53:16;;;;;;;4.18;0.80;;;12.70;99.90;;;;;;5011781;28;20093;-65
2023/12/25 10:55:43;;;;;;;6.15;1.00;;;12.70;99.90;;;;;;5017000;28;20042;-65
2023/12/25 10:58:10;;;;;;;4.13;1.23;;;12.70;99.90;;;;;;5017289;28;20038;-65
2023/12/25 11:00:36;;;;;;;4.82;0.98;;;12.80;99.90;;;;;;5017633;28;20111;-65
2023/12/25 11:03:03;;;;;;;2.95;0.65;;;12.80;99.90;;;;;;5017559;28;20038;-65
2023/12/25 11:05:31;;;;;;;4.30;0.93;;;12.70;99.90;;;;;;5017106;28;20097;-65
2023/12/25 11:07:58;;;;;;;2.47;0.68;;;12.70;99.90;;;;;;5017435;28;20111;-65
2023/12/25 11:10:25;;;;;;;3.83;1.27;;;12.70;99.90;;;;;;5017436;28;20136;-61
2023/12/25 11:12:51;;;;;;;4.55;1.00;;;12.70;99.90;;;;;;5015518;28;20215;-61
2023/12/25 11:15:18;;;;;;;5.25;1.08;;;12.70;99.90;;;;;;5016824;28;20371;-64
2023/12/25 11:17:45;;;;;;;4.13;1.05;;;12.70;99.90;;;;;;5016838;28;20108;-65
2023/12/25 11:20:12;;;;;;;7.10;1.05;;;12.70;99.90;;;;;;5016844;28;20479;-65
2023/12/25 11:22:39;;;;;;;4.93;0.93;;;12.70;99.90;;;;;;5016616;28;20042;-64
2023/12/25 11:25:06;;;;;;;4.22;1.50;;;12.70;99.90;;;;;;5016407;28;20457;-65
2023/12/25 11:27:32;;;;;;;4.90;1.10;;;12.70;99.90;;;;;;5016899;28;20045;-65
2023/12/25 11:30:00;;;;;;;4.30;1.10;;;12.80;99.90;;;;;;5015800;28;20069;-64
2023/12/25 11:32:27;;;;;;;7.03;1.25;;;12.80;99.90;;;;;;5016894;28;20471;-64
2023/12/25 11:34:54;;;;;;;4.28;0.90;;;12.80;99.90;;;;;;5015209;28;20073;-61
2023/12/25 11:37:21;;;;;;;4.00;1.00;;;12.80;99.90;;;;;;5016840;28;20049;-61
2023/12/25 11:39:48;;;;;;;4.30;1.00;;;12.90;99.90;;;;;;5017041;28;20117;-61
2023/12/25 11:42:15;;;;;;;4.28;0.95;;;12.90;99.90;;;;;;5016510;28;20100;-61
2023/12/25 11:44:42;;;;;;;5.40;0.80;;;12.90;99.90;;;;;;5016529;28;20049;-61
2023/12/25 11:47:10;;;;;;;4.50;1.13;;;12.90;99.90;;;;;;5016669;28;20053;-60
2023/12/25 11:49:40;;;;;;;3.30;1.00;;;12.90;99.90;;;;;;5014940;28;20048;-65
2023/12/25 11:52:07;;;;;;;4.75;1.15;;;12.90;99.90;;;;;;5015558;28;20084;-65
2023/12/25 11:54:34;;;;;;;3.63;0.85;;;13.00;99.90;;;;;;5014665;28;20046;-64
2023/12/25 11:57:02;;;;;;;4.40;1.00;;;13.00;99.90;;;;;;5016316;28;20048;-65
2023/12/25 11:59:29;;;;;;;3.95;1.02;;;13.00;99.90;;;;;;5016438;28;20117;-65
2023/12/25 12:01:56;;;;;;;3.85;1.00;;;13.00;99.90;;;;;;5016557;28;20215;-65
2023/12/25 12:04:23;;;;;;;3.20;0.80;;;13.00;99.90;;;;;;5015946;28;20092;-65
2023/12/25 12:06:50;;;;;;;3.85;0.82;;;13.00;99.90;;;;;;5016032;28;20121;-65
2023/12/25 12:09:17;;;;;;;1.70;0.57;;;13.00;99.90;;;;;;5016169;28;20104;-65
2023/12/25 12:11:43;;;;;;;2.03;0.60;;;13.00;99.90;;;;;;5016095;28;20050;-64
2023/12/25 12:14:10;;;;;;;3.05;0.80;;;13.00;99.90;;;;;;5015924;28;20062;-65
2023/12/25 12:16:41;;;;;;;3.95;1.00;;;13.00;99.90;;;;;;5015655;28;20049;-65
2023/12/25 12:19:12;;;;;;;2.35;0.80;;;13.00;99.90;;;;;;5015845;28;20042;-65
2023/12/25 12:21:39;;;;;;;4.85;1.52;;;13.00;99.90;;;;;;5015805;28;20463;-65
2023/12/25 12:24:06;;;;;;;3.63;1.00;;;13.00;99.90;;;;;;5016106;28;20050;-65
2023/12/25 12:26:33;;;;;;;3.45;0.90;;;12.90;99.90;;;;;;5015979;28;20050;-64
2023/12/25 12:29:00;;;;;;;5.25;1.20;;;12.90;99.90;;;;;;5016033;28;20049;-64
2023/12/25 12:31:27;;;;;;;4.05;0.90;;;12.90;99.90;;;;;;5015519;28;20046;-65
2023/12/25 12:33:53;;;;;;;3.13;0.60;;;12.90;99.90;;;;;;5015815;28;20046;-65
2023/12/25 12:36:24;;;;;;;4.68;0.80;;;12.80;99.90;;;;;;5015052;28;20053;-65
2023/12/25 12:38:51;;;;;;;3.47;1.30;;;12.70;99.90;;;;;;5016104;28;20061;-64
2023/12/25 12:41:18;;;;;;;2.40;0.70;;;12.70;99.90;;;;;;5015607;28;20041;-65
2023/12/25 12:43:44;;;;;;;2.25;0.60;;;12.70;99.90;;;;;;5015466;28;20042;-65
2023/12/25 12:46:11;;;;;;;2.42;0.80;;;12.70;99.90;;;;;;5015726;28;20053;-65